KMER

Castle Airport

Atwater, California, USA
METAR KMER 230345Z 31004KT 10SM SKC 15/09 A2989
Observed Flight Rules
Oct-23 @ 03:45 UTC (2 hours ago) Visual Flight Rules
Wind Visibility Clouds
310° at 4 knots 10 miles
  • Clear skies
Temperatures Readings
Current 15°C / 59°F
Dewpoint 9°C / 48°F
Humidity 68%
Altimeter 29.89" Hg
Pressure 1012 hPa
Elevation 57
METAR KMER 230345Z 31004KT 10SM SKC 15/09 A2989
Observed Flight Rules
Oct-23 @ 03:45 UTC
(2 hours ago)
VFR
Wind Visibility
310° at 4 knots 10 miles
Clouds
  • Clear skies
Temperature Dewpoint
15°C / 59°F 9°C / 48°F
Humidity Altimeter Pressure
68% 29.89" Hg 1012 hPa